Time;durP1;ratioP1;P1;durP2;ratioP2;P2;SDS_P1;SDS_P2;PMS_P1;PMS_P2;Temp;Humidity;BMP_temperature;BMP_pressure;BME280_temperature;BME280_humidity;BME280_pressure;Samples;Min_cycle;Max_cycle;Signal;HPM_P1;HPM_P2
2021/11/16 00:02:16;;;;;;;2.47;1.00;;;;;;;;;;5033898;28;20092;-61
2021/11/16 00:04:43;;;;;;;2.00;1.10;;;;;;;;;;5032377;28;20037;-62
2021/11/16 00:07:11;;;;;;;0.90;0.70;;;;;;;;;;5028827;28;20109;-61
2021/11/16 00:09:38;;;;;;;2.70;1.10;;;;;;;;;;5028960;28;20439;-61
2021/11/16 00:12:05;;;;;;;2.73;1.23;;;;;;;;;;5029449;28;20079;-61
2021/11/16 00:14:31;;;;;;;2.63;1.50;;;;;;;;;;5030954;28;20106;-61
2021/11/16 00:16:59;;;;;;;1.80;1.10;;;;;;;;;;5034617;28;20052;-61
2021/11/16 00:19:27;;;;;;;2.53;0.80;;;;;;;;;;5034293;28;20026;-61
2021/11/16 00:21:56;;;;;;;2.80;1.17;;;;;;;;;;5034301;28;20112;-61
2021/11/16 00:24:36;;;;;;;1.73;0.70;;;;;;;;;;5033487;28;20037;-61
2021/11/16 00:27:03;;;;;;;3.97;0.90;;;;;;;;;;5031685;28;20033;-61
2021/11/16 00:29:30;;;;;;;4.63;1.10;;;;;;;;;;5028892;28;20500;-62
2021/11/16 00:31:57;;;;;;;2.37;0.93;;;;;;;;;;5029063;28;20119;-62
2021/11/16 00:34:23;;;;;;;1.17;0.80;;;;;;;;;;5029034;28;20062;-61
2021/11/16 00:36:50;;;;;;;2.43;1.43;;;;;;;;;;5029852;28;20368;-61
2021/11/16 00:39:17;;;;;;;2.17;1.10;;;;;;;;;;5034303;28;20033;-61
2021/11/16 00:41:44;;;;;;;5.60;2.73;;;;;;;;;;5034220;28;20048;-61
2021/11/16 00:44:12;;;;;;;6.03;2.47;;;;;;;;;;5033801;28;20563;-61
2021/11/16 00:46:58;;;;;;;8.33;2.90;;;;;;;;;;5034030;28;20029;-61
2021/11/16 00:49:25;;;;;;;10.47;5.67;;;;;;;;;;5031161;28;20036;-61
2021/11/16 00:51:54;;;;;;;11.07;3.80;;;;;;;;;;5028759;28;20048;-61
2021/11/16 00:54:29;;;;;;;9.07;3.07;;;;;;;;;;5028587;28;20130;-61
2021/11/16 00:56:55;;;;;;;10.13;3.35;;;;;;;;;;5028272;28;20030;-61
2021/11/16 00:59:22;;;;;;;5.23;2.73;;;;;;;;;;5030974;28;20057;-61
2021/11/16 01:01:49;;;;;;;2.43;1.30;;;;;;;;;;5033157;28;20024;-61
2021/11/16 01:04:16;;;;;;;3.63;1.80;;;;;;;;;;5033737;28;20476;-61
2021/11/16 01:06:44;;;;;;;3.10;1.60;;;;;;;;;;5033701;28;20036;-61
2021/11/16 01:09:11;;;;;;;5.90;2.17;;;;;;;;;;5033222;28;20033;-61
2021/11/16 01:11:46;;;;;;;9.93;2.07;;;;;;;;;;5029708;28;20028;-61
2021/11/16 01:14:13;;;;;;;2.93;1.50;;;;;;;;;;5028156;28;20049;-61
2021/11/16 01:16:41;;;;;;;3.57;1.50;;;;;;;;;;5027831;28;20032;-61
2021/11/16 01:19:09;;;;;;;5.83;2.03;;;;;;;;;;5027992;28;20379;-61
2021/11/16 01:21:36;;;;;;;10.27;2.20;;;;;;;;;;5030360;28;20091;-61
2021/11/16 01:24:04;;;;;;;5.30;2.73;;;;;;;;;;5033419;28;20036;-61
2021/11/16 01:26:31;;;;;;;10.07;2.10;;;;;;;;;;5033082;28;20032;-61
2021/11/16 01:29:00;;;;;;;6.23;2.30;;;;;;;;;;5033211;28;20120;-61
2021/11/16 01:31:30;;;;;;;5.73;2.40;;;;;;;;;;5032814;28;20068;-61
2021/11/16 01:33:58;;;;;;;6.80;2.10;;;;;;;;;;5030430;28;20137;-61
2021/11/16 01:36:25;;;;;;;7.57;2.70;;;;;;;;;;5027523;28;20029;-61
2021/11/16 01:38:54;;;;;;;5.17;2.07;;;;;;;;;;5027644;28;20033;-61
2021/11/16 01:41:24;;;;;;;3.10;1.53;;;;;;;;;;5027822;28;20044;-61
2021/11/16 01:43:52;;;;;;;7.27;2.13;;;;;;;;;;5029440;28;20033;-61
2021/11/16 01:46:19;;;;;;;6.97;1.97;;;;;;;;;;5032593;28;20040;-61
2021/11/16 01:48:49;;;;;;;3.37;1.40;;;;;;;;;;5032961;28;20065;-61
2021/11/16 01:51:22;;;;;;;6.33;2.40;;;;;;;;;;5032569;28;20380;-61
2021/11/16 01:53:50;;;;;;;5.67;1.67;;;;;;;;;;5032809;28;20484;-60
2021/11/16 01:56:17;;;;;;;3.50;1.60;;;;;;;;;;5029926;28;20025;-61
2021/11/16 01:58:44;;;;;;;3.73;1.60;;;;;;;;;;5027222;28;20051;-61
2021/11/16 02:01:11;;;;;;;3.03;1.67;;;;;;;;;;5027407;28;20699;-60
2021/11/16 02:03:47;;;;;;;11.37;2.07;;;;;;;;;;5027486;28;20041;-61
2021/11/16 02:06:22;;;;;;;11.33;2.13;;;;;;;;;;5029703;28;20044;-61
2021/11/16 02:09:00;;;;;;;5.63;1.80;;;;;;;;;;5032357;28;20492;-61
2021/11/16 02:11:27;;;;;;;4.27;1.90;;;;;;;;;;5032219;28;20403;-61
2021/11/16 02:13:55;;;;;;;4.93;2.13;;;;;;;;;;5032668;28;20101;-61
2021/11/16 02:16:23;;;;;;;4.43;2.20;;;;;;;;;;5032465;28;20495;-61
2021/11/16 02:18:50;;;;;;;35.47;5.20;;;;;;;;;;5027481;28;20477;-61
2021/11/16 02:21:17;;;;;;;5.93;1.70;;;;;;;;;;5025889;28;20026;-61
2021/11/16 02:23:54;;;;;;;3.80;1.40;;;;;;;;;;5026849;28;20029;-60
2021/11/16 02:26:23;;;;;;;3.22;1.30;;;;;;;;;;5026496;28;20032;-60
2021/11/16 02:28:50;;;;;;;3.93;1.80;;;;;;;;;;5030359;28;20041;-61
2021/11/16 02:31:18;;;;;;;5.70;1.40;;;;;;;;;;5032375;28;20030;-61
2021/11/16 02:33:45;;;;;;;4.57;1.70;;;;;;;;;;5032197;28;20097;-61
2021/11/16 02:36:15;;;;;;;8.20;1.40;;;;;;;;;;5031921;28;20029;-61
2021/11/16 02:38:42;;;;;;;4.40;1.67;;;;;;;;;;5032163;28;20440;-61
2021/11/16 02:41:09;;;;;;;4.00;1.63;;;;;;;;;;5028331;28;20048;-62
2021/11/16 02:43:40;;;;;;;3.57;1.50;;;;;;;;;;5026648;28;20040;-61
2021/11/16 02:46:07;;;;;;;3.17;1.40;;;;;;;;;;5026537;28;20040;-60
2021/11/16 02:48:35;;;;;;;4.70;1.80;;;;;;;;;;5028853;28;20484;-61
2021/11/16 02:51:06;;;;;;;5.23;1.90;;;;;;;;;;5034171;28;20025;-61
2021/11/16 02:53:33;;;;;;;8.37;1.73;;;;;;;;;;5036246;28;20029;-61
2021/11/16 02:56:00;;;;;;;4.83;2.40;;;;;;;;;;5035898;28;20113;-61
2021/11/16 02:58:27;;;;;;;5.57;1.90;;;;;;;;;;5036122;28;20029;-60
2021/11/16 03:01:03;;;;;;;4.23;2.30;;;;;;;;;;5036052;28;20476;-61
2021/11/16 03:03:30;;;;;;;5.10;2.20;;;;;;;;;;5028732;28;20169;-63
2021/11/16 03:05:57;;;;;;;7.10;2.23;;;;;;;;;;5022893;28;20488;-61
2021/11/16 03:08:25;;;;;;;7.87;3.27;;;;;;;;;;5030494;28;20484;-61
2021/11/16 03:10:55;;;;;;;5.87;1.90;;;;;;;;;;5030491;28;20083;-62
2021/11/16 03:13:23;;;;;;;5.07;2.13;;;;;;;;;;5033773;28;20029;-61
2021/11/16 03:15:50;;;;;;;5.73;1.83;;;;;;;;;;5035393;28;20036;-62
2021/11/16 03:18:24;;;;;;;6.40;2.03;;;;;;;;;;5035144;28;20032;-60
2021/11/16 03:20:51;;;;;;;8.20;3.17;;;;;;;;;;5035550;28;20029;-61
2021/11/16 03:23:28;;;;;;;4.03;1.90;;;;;;;;;;5035465;28;20053;-61
2021/11/16 03:26:00;;;;;;;10.70;2.33;;;;;;;;;;5030775;28;20041;-61
2021/11/16 03:28:31;;;;;;;8.00;2.20;;;;;;;;;;5029993;28;20056;-60
2021/11/16 03:31:07;;;;;;;5.00;2.43;;;;;;;;;;5029697;28;20033;-60
2021/11/16 03:33:35;;;;;;;7.50;2.20;;;;;;;;;;5029866;28;20042;-61
2021/11/16 03:36:02;;;;;;;4.23;1.93;;;;;;;;;;5033898;28;20021;-60
2021/11/16 03:38:28;;;;;;;4.53;2.30;;;;;;;;;;5034860;28;20018;-61
2021/11/16 03:40:56;;;;;;;5.17;2.37;;;;;;;;;;5033531;28;20025;-61
2021/11/16 03:43:23;;;;;;;10.80;2.73;;;;;;;;;;5034154;28;20029;-61
2021/11/16 03:45:51;;;;;;;8.77;3.10;;;;;;;;;;5034135;28;20110;-60
2021/11/16 03:48:19;;;;;;;7.13;2.27;;;;;;;;;;5029677;28;20399;-61
2021/11/16 03:50:46;;;;;;;11.77;2.60;;;;;;;;;;5029687;28;20392;-61
2021/11/16 03:53:13;;;;;;;7.83;2.20;;;;;;;;;;5029001;28;20017;-61
2021/11/16 03:55:47;;;;;;;4.60;2.23;;;;;;;;;;5021558;28;20492;-63
2021/11/16 03:58:25;;;;;;;5.05;2.50;;;;;;;;;;5044606;28;20025;-63
2021/11/16 04:00:58;;;;;;;5.43;2.07;;;;;;;;;;5035068;28;20093;-62
2021/11/16 04:03:27;;;;;;;6.07;2.30;;;;;;;;;;5045349;28;20067;-61
2021/11/16 04:05:54;;;;;;;4.83;2.00;;;;;;;;;;5034288;28;20036;-61
2021/11/16 04:08:32;;;;;;;11.83;3.37;;;;;;;;;;5049416;28;20013;-61
2021/11/16 04:11:00;;;;;;;8.03;2.13;;;;;;;;;;5048846;28;20033;-62
2021/11/16 04:16:14;;;;;;;4.53;1.97;;;;;;;;;;5024792;28;20502;-61
2021/11/16 04:18:41;;;;;;;4.20;1.93;;;;;;;;;;5028369;28;20108;-61
2021/11/16 04:21:09;;;;;;;5.77;1.70;;;;;;;;;;5033938;28;20022;-61
2021/11/16 04:23:46;;;;;;;4.03;2.03;;;;;;;;;;5033557;28;20017;-61
2021/11/16 04:26:15;;;;;;;7.20;2.40;;;;;;;;;;5033709;28;20049;-61
2021/11/16 04:28:42;;;;;;;8.70;2.37;;;;;;;;;;5033472;28;20472;-60
2021/11/16 04:31:09;;;;;;;4.13;1.73;;;;;;;;;;5031856;28;20445;-61
2021/11/16 04:33:38;;;;;;;3.93;1.50;;;;;;;;;;5027752;28;20423;-61
2021/11/16 04:36:05;;;;;;;5.90;2.27;;;;;;;;;;5028116;28;20056;-61
2021/11/16 04:38:32;;;;;;;4.60;1.47;;;;;;;;;;5028421;28;20144;-60
2021/11/16 04:41:01;;;;;;;5.87;2.17;;;;;;;;;;5028035;28;20092;-61
2021/11/16 04:43:35;;;;;;;3.00;1.57;;;;;;;;;;5032577;28;20034;-61
2021/11/16 04:46:05;;;;;;;4.30;1.33;;;;;;;;;;5032425;28;20021;-61
2021/11/16 04:48:51;;;;;;;3.77;1.57;;;;;;;;;;5032858;28;20025;-60
2021/11/16 04:52:05;;;;;;;4.03;1.63;;;;;;;;;;5032835;28;20060;-60
2021/11/16 04:59:38;;;;;;;2.80;1.30;;;;;;;;;;5027544;28;20092;-61
2021/11/16 05:04:51;;;;;;;3.25;1.90;;;;;;;;;;5031834;28;20039;-61
2021/11/16 05:07:20;;;;;;;3.33;1.70;;;;;;;;;;5033431;28;20022;-61
2021/11/16 05:09:49;;;;;;;5.57;1.57;;;;;;;;;;5033077;28;20065;-61
2021/11/16 05:12:17;;;;;;;4.23;1.30;;;;;;;;;;5032483;28;20797;-61
2021/11/16 05:15:04;;;;;;;4.67;1.40;;;;;;;;;;5032887;28;20484;-61
2021/11/16 05:17:33;;;;;;;8.13;1.77;;;;;;;;;;5022105;28;20048;-61
2021/11/16 05:20:04;;;;;;;2.43;1.33;;;;;;;;;;5027521;28;20080;-61
2021/11/16 05:22:33;;;;;;;7.97;1.80;;;;;;;;;;5028081;28;20044;-60
2021/11/16 05:24:59;;;;;;;5.97;1.90;;;;;;;;;;5027844;28;20029;-60
2021/11/16 05:27:26;;;;;;;4.17;2.50;;;;;;;;;;5033319;28;20397;-61
2021/11/16 05:29:53;;;;;;;5.27;1.40;;;;;;;;;;5032171;28;20626;-61
2021/11/16 05:32:20;;;;;;;2.60;1.33;;;;;;;;;;5033333;28;20326;-60
2021/11/16 05:34:47;;;;;;;4.20;1.50;;;;;;;;;;5031999;28;20033;-61
2021/11/16 05:37:14;;;;;;;3.30;1.43;;;;;;;;;;5032683;28;20041;-61
2021/11/16 05:39:41;;;;;;;3.13;1.50;;;;;;;;;;5027468;28;20040;-61
2021/11/16 05:42:10;;;;;;;2.77;1.40;;;;;;;;;;5027521;28;20823;-61
2021/11/16 05:44:38;;;;;;;4.07;1.83;;;;;;;;;;5026832;28;20783;-61
2021/11/16 05:47:05;;;;;;;5.40;1.60;;;;;;;;;;5027136;28;20636;-61
2021/11/16 05:49:32;;;;;;;3.53;1.47;;;;;;;;;;5031916;28;20708;-61
2021/11/16 05:52:03;;;;;;;2.83;1.47;;;;;;;;;;5032701;28;20278;-61
2021/11/16 05:54:33;;;;;;;4.67;1.80;;;;;;;;;;5032807;28;20250;-61
2021/11/16 05:57:00;;;;;;;4.37;1.47;;;;;;;;;;5032856;28;20282;-61
2021/11/16 05:59:33;;;;;;;3.77;1.40;;;;;;;;;;5032418;28;20671;-60
2021/11/16 06:02:04;;;;;;;6.43;1.73;;;;;;;;;;5026792;28;20275;-60
2021/11/16 06:04:50;;;;;;;2.77;1.30;;;;;;;;;;5027478;28;20266;-61
2021/11/16 06:07:17;;;;;;;3.03;1.33;;;;;;;;;;5026588;28;20297;-61
2021/11/16 06:09:44;;;;;;;4.07;1.57;;;;;;;;;;5027579;28;20287;-60
2021/11/16 06:12:11;;;;;;;3.67;1.37;;;;;;;;;;5031606;28;20270;-60
2021/11/16 06:14:38;;;;;;;6.03;1.90;;;;;;;;;;5032186;28;20310;-61
2021/11/16 06:17:06;;;;;;;5.43;1.40;;;;;;;;;;5031603;28;20633;-60
2021/11/16 06:19:35;;;;;;;4.53;1.57;;;;;;;;;;5032274;28;20278;-60
2021/11/16 06:22:02;;;;;;;3.87;1.63;;;;;;;;;;5030479;28;20298;-61
2021/11/16 06:24:29;;;;;;;4.37;2.00;;;;;;;;;;5026414;28;20338;-61
2021/11/16 06:26:56;;;;;;;6.43;1.97;;;;;;;;;;5026653;28;20349;-60
2021/11/16 06:32:10;;;;;;;4.87;1.70;;;;;;;;;;5027601;28;20266;-60
2021/11/16 06:34:37;;;;;;;2.67;1.40;;;;;;;;;;5031898;28;20672;-61
2021/11/16 06:37:05;;;;;;;4.80;1.80;;;;;;;;;;5031578;28;20257;-61
2021/11/16 06:39:32;;;;;;;3.80;2.03;;;;;;;;;;5032239;28;20255;-60
2021/11/16 06:42:01;;;;;;;4.47;1.50;;;;;;;;;;5031467;28;20327;-60
2021/11/16 06:44:27;;;;;;;3.83;1.57;;;;;;;;;;5030368;28;20309;-60
2021/11/16 06:46:55;;;;;;;1.93;1.13;;;;;;;;;;5026416;28;20331;-61
2021/11/16 06:49:22;;;;;;;2.30;1.20;;;;;;;;;;5026392;28;20287;-60
2021/11/16 06:51:50;;;;;;;2.57;1.20;;;;;;;;;;5026424;28;20263;-61
2021/11/16 06:54:19;;;;;;;3.40;1.60;;;;;;;;;;5007893;28;20255;-60
2021/11/16 06:56:48;;;;;;;2.87;1.40;;;;;;;;;;5024440;28;20276;-60
2021/11/16 06:59:18;;;;;;;2.83;1.37;;;;;;;;;;5032035;28;20258;-60
2021/11/16 07:01:45;;;;;;;3.00;1.30;;;;;;;;;;5031987;28;20262;-60
2021/11/16 07:04:12;;;;;;;2.77;1.43;;;;;;;;;;5031723;28;20309;-60
2021/11/16 07:06:44;;;;;;;4.87;1.30;;;;;;;;;;5029870;28;20274;-61
2021/11/16 07:09:13;;;;;;;3.57;1.30;;;;;;;;;;5026135;28;20363;-60
2021/11/16 07:11:47;;;;;;;2.47;1.00;;;;;;;;;;5026474;28;20788;-60
2021/11/16 07:14:17;;;;;;;3.57;1.20;;;;;;;;;;5025813;28;20357;-61
2021/11/16 07:16:56;;;;;;;3.50;1.10;;;;;;;;;;5027644;28;20282;-60
2021/11/16 07:19:34;;;;;;;4.13;1.43;;;;;;;;;;5031752;28;20271;-60
2021/11/16 07:22:05;;;;;;;5.43;1.20;;;;;;;;;;5031562;28;20247;-61
2021/11/16 07:24:32;;;;;;;3.00;1.37;;;;;;;;;;5031269;28;20262;-62
2021/11/16 07:27:07;;;;;;;3.20;1.20;;;;;;;;;;5031271;28;20247;-61
2021/11/16 07:29:39;;;;;;;5.10;1.60;;;;;;;;;;5028527;28;20290;-60
2021/11/16 07:32:07;;;;;;;2.47;1.17;;;;;;;;;;5026373;28;20379;-60
2021/11/16 07:34:35;;;;;;;2.37;1.23;;;;;;;;;;5027816;28;20266;-60
2021/11/16 07:37:03;;;;;;;1.70;1.00;;;;;;;;;;5030157;28;20263;-60
2021/11/16 07:39:31;;;;;;;3.20;1.37;;;;;;;;;;5032095;28;20270;-60
2021/11/16 07:42:09;;;;;;;2.77;1.10;;;;;;;;;;5034731;28;20620;-60
2021/11/16 07:44:36;;;;;;;3.93;1.57;;;;;;;;;;5034533;28;20309;-60
2021/11/16 07:47:04;;;;;;;2.90;1.40;;;;;;;;;;5035216;28;20278;-60
2021/11/16 07:49:31;;;;;;;4.10;1.63;;;;;;;;;;5034749;28;20287;-60
2021/11/16 07:51:58;;;;;;;2.67;1.30;;;;;;;;;;5030747;28;20587;-60
2021/11/16 07:54:28;;;;;;;3.63;1.50;;;;;;;;;;5029448;28;20697;-60
2021/11/16 07:56:55;;;;;;;2.33;1.13;;;;;;;;;;5029362;28;20824;-60
2021/11/16 07:59:42;;;;;;;3.97;1.57;;;;;;;;;;5029716;28;20899;-60
2021/11/16 08:02:19;;;;;;;2.97;1.47;;;;;;;;;;5033369;28;20264;-61
2021/11/16 08:05:09;;;;;;;3.57;1.30;;;;;;;;;;5034318;28;20421;-60
2021/11/16 08:10:29;;;;;;;3.30;1.40;;;;;;;;;;5012819;28;20268;-60
2021/11/16 08:13:16;;;;;;;5.63;1.73;;;;;;;;;;5031011;28;20278;-60
2021/11/16 08:15:53;;;;;;;2.93;1.40;;;;;;;;;;5029090;28;20317;-61
2021/11/16 08:18:19;;;;;;;3.23;1.47;;;;;;;;;;5028960;28;20277;-60
2021/11/16 08:20:46;;;;;;;6.80;1.37;;;;;;;;;;5027970;28;20366;-60
2021/11/16 08:23:13;;;;;;;1.93;1.00;;;;;;;;;;5030706;28;20258;-60
2021/11/16 08:25:40;;;;;;;2.03;1.10;;;;;;;;;;5034563;28;20262;-60
2021/11/16 08:28:27;;;;;;;5.73;1.20;;;;;;;;;;5033817;28;20349;-60
2021/11/16 08:30:54;;;;;;;3.73;1.43;;;;;;;;;;5034401;28;20277;-60
2021/11/16 08:33:21;;;;;;;2.00;1.03;;;;;;;;;;5034278;28;20734;-60
2021/11/16 08:35:48;;;;;;;3.40;1.07;;;;;;;;;;5031619;28;20247;-61
2021/11/16 08:38:23;;;;;;;7.27;2.20;;;;;;;;;;5028419;28;20270;-60
2021/11/16 08:40:57;;;;;;;3.23;1.40;;;;;;;;;;5028514;28;20344;-61
2021/11/16 08:43:35;;;;;;;4.82;2.22;;;;;;;;;;5028284;28;20358;-60
2021/11/16 08:46:05;;;;;;;4.17;1.70;;;;;;;;;;5030561;28;20044;-60
2021/11/16 08:48:35;;;;;;;12.50;4.30;;;;;;;;;;5033853;28;20266;-60
2021/11/16 08:51:06;;;;;;;6.23;2.70;;;;;;;;;;5033977;28;20622;-60
2021/11/16 08:53:34;;;;;;;10.13;2.97;;;;;;;;;;5033523;28;20754;-61
2021/11/16 08:56:05;;;;;;;6.60;3.00;;;;;;;;;;5034042;28;20749;-60
2021/11/16 08:58:32;;;;;;;8.97;3.10;;;;;;;;;;5028980;28;20317;-60
2021/11/16 09:01:02;;;;;;;9.17;2.50;;;;;;;;;;5028623;28;20313;-60
2021/11/16 09:03:33;;;;;;;7.37;2.57;;;;;;;;;;5028030;28;20273;-60
2021/11/16 09:06:01;;;;;;;3.30;1.53;;;;;;;;;;5028298;28;20814;-61
2021/11/16 09:08:32;;;;;;;3.20;1.47;;;;;;;;;;5031538;28;20286;-61
2021/11/16 09:11:10;;;;;;;2.57;1.20;;;;;;;;;;5033859;28;20259;-60
2021/11/16 09:13:37;;;;;;;2.30;1.20;;;;;;;;;;5032988;28;20741;-60
2021/11/16 09:16:06;;;;;;;3.23;1.37;;;;;;;;;;5032767;28;20282;-60
2021/11/16 09:18:40;;;;;;;3.90;1.13;;;;;;;;;;5033336;28;20745;-60
2021/11/16 09:21:17;;;;;;;3.97;1.40;;;;;;;;;;5028181;28;20259;-61
2021/11/16 09:29:23;;;;;;;2.60;1.30;;;;;;;;;;5028479;28;20041;-60
2021/11/16 09:31:56;;;;;;;2.17;1.20;;;;;;;;;;5032742;28;20784;-60
2021/11/16 09:34:24;;;;;;;2.00;1.03;;;;;;;;;;5033069;28;20639;-60
2021/11/16 09:36:55;;;;;;;1.70;1.00;;;;;;;;;;5032974;28;20277;-60
2021/11/16 09:42:31;;;;;;;1.97;1.10;;;;;;;;;;5027896;28;20274;-60
2021/11/16 09:45:03;;;;;;;2.00;1.10;;;;;;;;;;5027184;28;20349;-60
2021/11/16 09:47:31;;;;;;;2.90;0.90;;;;;;;;;;5026548;28;20259;-60
2021/11/16 09:50:02;;;;;;;2.17;1.00;;;;;;;;;;5027765;28;20290;-60
2021/11/16 09:52:35;;;;;;;1.20;0.87;;;;;;;;;;5030659;28;20258;-60
2021/11/16 09:55:06;;;;;;;2.17;0.90;;;;;;;;;;5032554;28;20274;-60
2021/11/16 09:57:34;;;;;;;5.73;1.20;;;;;;;;;;5032424;28;20282;-60
2021/11/16 10:00:18;;;;;;;2.33;0.90;;;;;;;;;;5032150;28;20277;-59
2021/11/16 10:03:05;;;;;;;3.90;1.33;;;;;;;;;;5032366;28;20266;-60
2021/11/16 10:05:42;;;;;;;1.83;1.07;;;;;;;;;;5024579;28;20350;-60
2021/11/16 10:08:09;;;;;;;2.23;1.13;;;;;;;;;;5027126;28;20514;-60
2021/11/16 10:10:40;;;;;;;3.23;1.17;;;;;;;;;;5027230;28;20684;-60
2021/11/16 10:13:11;;;;;;;2.10;0.90;;;;;;;;;;5026865;28;20259;-60
2021/11/16 10:15:40;;;;;;;1.87;1.10;;;;;;;;;;5031878;28;20384;-60
2021/11/16 10:18:07;;;;;;;5.27;1.20;;;;;;;;;;5031475;28;20298;-60
2021/11/16 10:20:35;;;;;;;2.43;1.20;;;;;;;;;;5032548;28;20334;-60
2021/11/16 10:23:03;;;;;;;3.27;1.20;;;;;;;;;;5031987;28;20266;-60
2021/11/16 10:25:34;;;;;;;2.53;1.50;;;;;;;;;;5031766;28;20259;-60
2021/11/16 10:28:09;;;;;;;2.70;1.27;;;;;;;;;;5026573;28;20273;-60
2021/11/16 10:30:36;;;;;;;3.97;1.30;;;;;;;;;;5026770;28;20761;-60
2021/11/16 10:33:08;;;;;;;2.30;1.13;;;;;;;;;;5026744;28;20033;-60
2021/11/16 10:35:37;;;;;;;2.30;1.30;;;;;;;;;;5027513;28;20259;-59
2021/11/16 10:38:07;;;;;;;2.47;1.23;;;;;;;;;;5031726;28;20266;-60
2021/11/16 10:40:37;;;;;;;2.33;1.40;;;;;;;;;;5032155;28;20266;-60
2021/11/16 10:43:06;;;;;;;4.83;1.67;;;;;;;;;;5031569;28;20290;-60
2021/11/16 10:45:38;;;;;;;2.47;1.43;;;;;;;;;;5031817;28;20317;-60
2021/11/16 10:48:11;;;;;;;2.33;1.40;;;;;;;;;;5030012;28;20289;-60
2021/11/16 10:50:42;;;;;;;2.33;1.23;;;;;;;;;;5026977;28;20328;-60
2021/11/16 10:53:19;;;;;;;2.10;1.10;;;;;;;;;;5026214;28;20266;-60
2021/11/16 10:55:50;;;;;;;3.03;1.60;;;;;;;;;;5026535;28;20358;-60
2021/11/16 10:58:18;;;;;;;2.93;1.60;;;;;;;;;;5028394;28;20697;-60
2021/11/16 11:00:48;;;;;;;2.67;1.10;;;;;;;;;;5031816;28;20749;-59
2021/11/16 11:03:15;;;;;;;2.63;1.30;;;;;;;;;;5031322;28;20255;-59
2021/11/16 11:05:43;;;;;;;5.10;1.40;;;;;;;;;;5031370;28;20267;-60
2021/11/16 11:08:10;;;;;;;2.70;1.17;;;;;;;;;;5031726;28;20368;-60
2021/11/16 11:10:44;;;;;;;2.40;1.10;;;;;;;;;;5033121;28;20285;-59
2021/11/16 11:13:21;;;;;;;3.07;1.53;;;;;;;;;;5029916;28;20298;-60
2021/11/16 11:15:51;;;;;;;7.27;1.70;;;;;;;;;;5029861;28;20293;-60
2021/11/16 11:18:48;;;;;;;2.83;1.57;;;;;;;;;;5030209;28;20267;-59
2021/11/16 11:21:31;;;;;;;2.80;1.37;;;;;;;;;;5034047;28;20271;-59
2021/11/16 11:24:01;;;;;;;2.43;1.40;;;;;;;;;;5015838;28;20782;-59
2021/11/16 11:29:32;;;;;;;3.63;2.00;;;;;;;;;;5035415;28;20286;-60
2021/11/16 11:32:04;;;;;;;3.40;1.90;;;;;;;;;;5034128;28;20274;-60
2021/11/16 11:34:33;;;;;;;2.63;1.33;;;;;;;;;;5030117;28;20254;-59
2021/11/16 11:37:07;;;;;;;3.83;2.20;;;;;;;;;;5029926;28;20282;-60
2021/11/16 11:39:34;;;;;;;4.32;1.63;;;;;;;;;;5029943;28;20278;-60
2021/11/16 11:42:01;;;;;;;4.70;2.10;;;;;;;;;;5030188;28;20193;-59
2021/11/16 11:44:37;;;;;;;3.47;1.70;;;;;;;;;;5034891;28;20633;-59
2021/11/16 11:47:05;;;;;;;3.87;1.90;;;;;;;;;;5034698;28;20275;-60
2021/11/16 11:49:31;;;;;;;4.87;2.27;;;;;;;;;;5034696;28;20295;-59
2021/11/16 11:51:59;;;;;;;5.33;2.03;;;;;;;;;;5034418;28;20749;-59
2021/11/16 11:54:26;;;;;;;5.10;2.13;;;;;;;;;;5033209;28;20259;-60
2021/11/16 11:56:54;;;;;;;5.80;2.53;;;;;;;;;;5029808;28;20274;-59
2021/11/16 11:59:24;;;;;;;3.60;1.73;;;;;;;;;;5029113;28;20297;-59
2021/11/16 12:01:52;;;;;;;4.73;2.27;;;;;;;;;;5029251;28;20274;-60
2021/11/16 12:04:19;;;;;;;5.80;2.20;;;;;;;;;;5030383;28;20326;-59
2021/11/16 12:06:47;;;;;;;4.27;2.03;;;;;;;;;;5034446;28;20266;-59
2021/11/16 12:09:17;;;;;;;5.27;3.47;;;;;;;;;;5034112;28;20302;-59
2021/11/16 12:11:45;;;;;;;7.13;3.20;;;;;;;;;;5034495;28;20274;-59
2021/11/16 12:14:33;;;;;;;5.67;3.40;;;;;;;;;;5034617;28;20258;-59
2021/11/16 12:17:03;;;;;;;4.93;2.77;;;;;;;;;;5032071;28;20660;-60
2021/11/16 12:19:45;;;;;;;7.17;2.40;;;;;;;;;;5028441;28;20815;-60
2021/11/16 12:22:16;;;;;;;9.43;3.70;;;;;;;;;;5014709;28;20274;-59
2021/11/16 12:24:47;;;;;;;12.23;5.10;;;;;;;;;;5028857;28;20271;-59
2021/11/16 12:27:14;;;;;;;15.90;6.43;;;;;;;;;;5032238;28;20263;-59
2021/11/16 12:29:48;;;;;;;12.50;5.23;;;;;;;;;;5034284;28;20302;-59
2021/11/16 12:32:35;;;;;;;13.43;6.03;;;;;;;;;;5034103;28;20353;-59
2021/11/16 12:35:12;;;;;;;11.67;5.60;;;;;;;;;;5034219;28;20251;-59
2021/11/16 12:37:43;;;;;;;11.57;4.93;;;;;;;;;;5034061;28;20605;-59
2021/11/16 12:40:12;;;;;;;14.97;6.00;;;;;;;;;;5028650;28;20669;-59
2021/11/16 12:42:39;;;;;;;16.33;5.43;;;;;;;;;;5028632;28;20282;-59
2021/11/16 12:45:10;;;;;;;14.87;4.93;;;;;;;;;;5027782;28;20349;-60
2021/11/16 12:47:57;;;;;;;13.97;5.10;;;;;;;;;;5028504;28;20278;-59
2021/11/16 12:50:23;;;;;;;17.90;5.90;;;;;;;;;;5033382;28;20294;-59
2021/11/16 12:52:52;;;;;;;15.17;6.47;;;;;;;;;;5033966;28;20346;-59
2021/11/16 12:55:44;;;;;;;10.80;4.60;;;;;;;;;;5033251;28;20263;-59
2021/11/16 12:58:43;;;;;;;14.93;5.10;;;;;;;;;;5033721;28;20263;-59
2021/11/16 13:01:30;;;;;;;8.13;4.27;;;;;;;;;;5029723;28;20270;-60
2021/11/16 13:03:57;;;;;;;8.07;3.47;;;;;;;;;;5027821;28;20768;-59
2021/11/16 13:06:29;;;;;;;8.87;4.13;;;;;;;;;;5028609;28;20270;-60
2021/11/16 13:08:56;;;;;;;12.73;4.50;;;;;;;;;;5027949;28;20801;-59
2021/11/16 13:11:58;;;;;;;13.43;5.07;;;;;;;;;;5030621;28;20281;-59
2021/11/16 13:15:02;;;;;;;10.23;4.00;;;;;;;;;;5033191;28;20282;-59
2021/11/16 13:17:51;;;;;;;11.23;5.10;;;;;;;;;;5031238;28;20262;-59
2021/11/16 13:20:38;;;;;;;13.33;4.43;;;;;;;;;;5033347;28;20345;-59
2021/11/16 13:23:07;;;;;;;10.00;4.17;;;;;;;;;;5030896;28;20274;-59
2021/11/16 13:25:48;;;;;;;12.37;3.93;;;;;;;;;;5027910;28;20336;-59
2021/11/16 13:28:32;;;;;;;11.47;5.17;;;;;;;;;;5027767;28;20262;-59
2021/11/16 13:31:21;;;;;;;8.97;3.73;;;;;;;;;;5028049;28;20286;-59
2021/11/16 13:34:13;;;;;;;7.73;3.40;;;;;;;;;;5031083;28;20298;-59
2021/11/16 13:36:42;;;;;;;7.43;3.30;;;;;;;;;;5032958;28;20357;-60
2021/11/16 13:39:19;;;;;;;7.00;4.13;;;;;;;;;;5033111;28;20321;-59
2021/11/16 13:41:48;;;;;;;5.93;3.07;;;;;;;;;;5032786;28;20270;-59
2021/11/16 13:44:25;;;;;;;5.53;3.27;;;;;;;;;;5032643;28;20266;-60
2021/11/16 13:47:16;;;;;;;6.10;3.27;;;;;;;;;;5027074;28;20271;-60
2021/11/16 13:50:03;;;;;;;;;;;;;;;;;;;;;
2021/11/16 13:52:35;;;;;;;7.40;3.23;;;;;;;;;;5027336;28;20600;-60
2021/11/16 13:55:10;;;;;;;8.97;3.23;;;;;;;;;;5029220;28;20274;-60
2021/11/16 13:57:42;;;;;;;4.40;2.70;;;;;;;;;;5032884;28;20273;-59
2021/11/16 14:00:15;;;;;;;8.37;3.70;;;;;;;;;;5032885;28;20255;-60
2021/11/16 14:02:44;;;;;;;6.13;3.27;;;;;;;;;;5032440;28;20595;-60
2021/11/16 14:05:14;;;;;;;7.10;2.80;;;;;;;;;;5032413;28;20819;-60
2021/11/16 14:07:51;;;;;;;6.60;2.63;;;;;;;;;;5029218;28;20271;-60
2021/11/16 14:10:19;;;;;;;5.17;2.07;;;;;;;;;;5027100;28;20318;-60
2021/11/16 14:16:04;;;;;;;5.17;2.40;;;;;;;;;;5026180;28;20905;-59
2021/11/16 14:18:36;;;;;;;8.40;3.10;;;;;;;;;;5031779;28;20079;-59
2021/11/16 14:21:07;;;;;;;9.37;3.87;;;;;;;;;;5031976;28;20079;-61
2021/11/16 14:23:44;;;;;;;5.63;2.73;;;;;;;;;;5033056;28;20040;-59
2021/11/16 14:26:28;;;;;;;10.57;3.90;;;;;;;;;;5032693;28;20131;-59
2021/11/16 14:28:55;;;;;;;14.87;3.87;;;;;;;;;;5011166;28;20065;-59
2021/11/16 14:31:24;;;;;;;8.50;4.00;;;;;;;;;;5007256;28;20052;-60
2021/11/16 14:33:56;;;;;;;8.33;3.63;;;;;;;;;;5027030;28;20083;-60
2021/11/16 14:39:18;;;;;;;12.77;4.00;;;;;;;;;;5028034;28;20547;-60
2021/11/16 14:41:46;;;;;;;6.67;3.43;;;;;;;;;;5031933;28;20128;-60
2021/11/16 14:44:15;;;;;;;10.80;3.83;;;;;;;;;;5030972;28;20037;-60
2021/11/16 14:46:49;;;;;;;9.10;4.37;;;;;;;;;;5031697;28;20052;-60
2021/11/16 14:49:39;;;;;;;8.05;3.58;;;;;;;;;;5012486;28;20034;-60
2021/11/16 14:52:33;;;;;;;10.23;3.90;;;;;;;;;;5022476;28;20504;-60
2021/11/16 14:55:11;;;;;;;7.20;3.57;;;;;;;;;;5025161;28;20458;-60
2021/11/16 14:57:39;;;;;;;8.53;4.37;;;;;;;;;;5026598;28;20495;-60
2021/11/16 15:00:12;;;;;;;8.47;4.10;;;;;;;;;;5026187;28;20021;-60
2021/11/16 15:02:39;;;;;;;9.63;4.23;;;;;;;;;;5031548;28;20029;-60
2021/11/16 15:05:08;;;;;;;11.40;4.87;;;;;;;;;;5031792;28;20025;-60
2021/11/16 15:07:35;;;;;;;12.23;4.37;;;;;;;;;;5031607;28;20083;-60
2021/11/16 15:10:04;;;;;;;9.27;4.40;;;;;;;;;;5031580;28;20045;-60
2021/11/16 15:12:31;;;;;;;17.03;4.73;;;;;;;;;;5031830;28;20156;-60
2021/11/16 15:15:04;;;;;;;7.30;3.10;;;;;;;;;;5025535;28;20029;-60
2021/11/16 15:17:51;;;;;;;8.00;3.13;;;;;;;;;;5026056;28;20029;-60
2021/11/16 15:20:36;;;;;;;8.80;3.50;;;;;;;;;;5026601;28;20361;-60
2021/11/16 15:23:11;;;;;;;5.82;3.20;;;;;;;;;;5027541;28;20112;-60
2021/11/16 15:25:50;;;;;;;5.78;2.53;;;;;;;;;;5031168;28;20038;-61
2021/11/16 15:28:18;;;;;;;6.03;2.90;;;;;;;;;;5031219;28;20036;-60
2021/11/16 15:30:46;;;;;;;4.67;2.50;;;;;;;;;;5031409;28;20029;-61
2021/11/16 15:33:17;;;;;;;7.00;3.27;;;;;;;;;;5031780;28;20029;-60
2021/11/16 15:35:58;;;;;;;6.67;2.90;;;;;;;;;;5028402;28;20056;-60
2021/11/16 15:38:30;;;;;;;5.33;2.50;;;;;;;;;;5026255;28;20567;-60
2021/11/16 15:41:02;;;;;;;10.23;2.83;;;;;;;;;;5025868;28;20041;-60
2021/11/16 15:49:20;;;;;;;3.67;2.13;;;;;;;;;;5019902;28;20051;-60